Time;durP1;ratioP1;P1;durP2;ratioP2;P2;SDS_P1;SDS_P2;PMS_P1;PMS_P2;Temp;Humidity;BMP_temperature;BMP_pressure;BME280_temperature;BME280_humidity;BME280_pressure;Samples;Min_cycle;Max_cycle;Signal;HPM_P1;HPM_P2
2020/12/30 00:01:42;;;;;;;34.17;22.17;;;;;;;;;;5116072;27;20192;-89
2020/12/30 00:04:08;;;;;;;40.70;25.77;;;;;;;;;;5114853;28;20198;-89
2020/12/30 00:06:36;;;;;;;23.30;17.40;;;;;;;;;;5115135;28;20233;-89
2020/12/30 00:09:03;;;;;;;28.07;19.20;;;;;;;;;;5114929;28;20180;-90
2020/12/30 00:11:29;;;;;;;27.00;18.80;;;;;;;;;;5114618;28;20211;-89
2020/12/30 00:14:01;;;;;;;31.10;20.20;;;;;;;;;;5114713;28;20184;-89
2020/12/30 00:16:32;;;;;;;45.50;28.57;;;;;;;;;;5114618;28;20224;-89
2020/12/30 00:19:09;;;;;;;41.07;26.87;;;;;;;;;;5114554;28;20303;-89
2020/12/30 00:21:40;;;;;;;32.10;22.50;;;;;;;;;;5115046;28;20205;-88
2020/12/30 00:24:07;;;;;;;47.37;29.33;;;;;;;;;;5114447;28;20204;-89
2020/12/30 00:26:36;;;;;;;32.63;21.83;;;;;;;;;;5114381;28;20265;-89
2020/12/30 00:29:02;;;;;;;18.10;15.03;;;;;;;;;;5114470;28;20303;-90
2020/12/30 00:31:36;;;;;;;30.27;20.20;;;;;;;;;;5115299;28;20563;-89
2020/12/30 00:34:07;;;;;;;33.57;22.73;;;;;;;;;;5114507;28;20201;-90
2020/12/30 00:36:42;;;;;;;27.43;19.23;;;;;;;;;;5115109;28;20281;-91
2020/12/30 00:39:10;;;;;;;38.27;23.53;;;;;;;;;;5114256;28;20203;-91
2020/12/30 00:41:42;;;;;;;41.93;21.37;;;;;;;;;;5114264;28;20575;-91
2020/12/30 00:44:11;;;;;;;46.47;31.03;;;;;;;;;;5114188;28;20262;-91
2020/12/30 00:46:43;;;;;;;47.73;31.07;;;;;;;;;;5113950;28;20189;-90
2020/12/30 00:49:13;;;;;;;44.03;29.30;;;;;;;;;;5114159;28;20172;-90
2020/12/30 00:51:50;;;;;;;44.93;28.17;;;;;;;;;;5113778;28;20196;-90
2020/12/30 00:54:23;;;;;;;41.57;26.73;;;;;;;;;;5113916;28;20188;-89
2020/12/30 00:56:53;;;;;;;40.53;25.60;;;;;;;;;;5115020;28;20231;-90
2020/12/30 00:59:30;;;;;;;38.70;23.57;;;;;;;;;;5115137;28;20532;-89
2020/12/30 01:01:59;;;;;;;28.40;17.77;;;;;;;;;;5115058;28;20200;-90
2020/12/30 01:04:28;;;;;;;34.43;22.90;;;;;;;;;;5113563;28;20204;-90
2020/12/30 01:06:55;;;;;;;28.70;20.53;;;;;;;;;;5114264;28;20635;-90
2020/12/30 01:09:23;;;;;;;32.53;22.07;;;;;;;;;;5113699;28;20252;-88
2020/12/30 01:11:49;;;;;;;24.87;18.20;;;;;;;;;;5115164;28;20217;-89
2020/12/30 01:14:21;;;;;;;36.30;24.00;;;;;;;;;;5113428;28;20181;-89
2020/12/30 01:16:54;;;;;;;26.70;19.87;;;;;;;;;;5114696;28;20177;-89
2020/12/30 01:19:22;;;;;;;25.67;19.97;;;;;;;;;;5113496;28;20164;-89
2020/12/30 01:21:51;;;;;;;42.53;27.67;;;;;;;;;;5113332;28;20201;-89
2020/12/30 01:24:18;;;;;;;37.83;25.40;;;;;;;;;;5113379;28;20181;-92
2020/12/30 01:26:47;;;;;;;36.57;25.33;;;;;;;;;;5113382;28;20289;-92
2020/12/30 01:29:16;;;;;;;28.40;21.73;;;;;;;;;;5114572;28;20184;-92
2020/12/30 01:31:42;;;;;;;35.83;22.77;;;;;;;;;;5113423;28;20206;-92
2020/12/30 01:34:09;;;;;;;48.60;29.90;;;;;;;;;;5113199;28;20176;-91
2020/12/30 01:36:37;;;;;;;30.00;22.80;;;;;;;;;;5113143;28;20180;-91
2020/12/30 01:39:09;;;;;;;29.93;24.63;;;;;;;;;;5113114;28;20184;-91
2020/12/30 01:41:36;;;;;;;31.80;25.00;;;;;;;;;;5112931;28;20205;-91
2020/12/30 01:44:09;;;;;;;42.57;29.17;;;;;;;;;;5114249;28;20173;-90
2020/12/30 01:46:41;;;;;;;33.07;25.93;;;;;;;;;;5113191;28;20285;-91
2020/12/30 01:49:17;;;;;;;32.07;23.57;;;;;;;;;;5113309;28;20173;-91
2020/12/30 01:51:46;;;;;;;42.13;26.23;;;;;;;;;;5113236;28;20347;-90
2020/12/30 01:54:15;;;;;;;45.50;29.83;;;;;;;;;;5113030;28;20676;-91
2020/12/30 01:56:42;;;;;;;31.83;23.27;;;;;;;;;;5196743;22;20709;-85
2020/12/30 01:59:10;;;;;;;30.60;21.60;;;;;;;;;;5093494;28;20174;-85
2020/12/30 02:01:37;;;;;;;31.30;22.87;;;;;;;;;;5092223;28;20177;-84
2020/12/30 02:04:06;;;;;;;35.53;26.63;;;;;;;;;;5093390;28;20578;-84
2020/12/30 02:06:38;;;;;;;27.97;19.13;;;;;;;;;;5093495;28;20217;-84
2020/12/30 02:09:09;;;;;;;42.17;27.57;;;;;;;;;;5093461;28;20174;-83
2020/12/30 02:11:38;;;;;;;42.47;28.77;;;;;;;;;;5092898;28;20169;-84
2020/12/30 02:14:13;;;;;;;44.07;29.57;;;;;;;;;;5093237;28;20174;-84
2020/12/30 02:16:57;;;;;;;27.90;19.47;;;;;;;;;;5093237;28;20672;-84
2020/12/30 02:19:27;;;;;;;50.20;31.60;;;;;;;;;;5092652;28;20170;-84
2020/12/30 02:22:00;;;;;;;34.20;22.83;;;;;;;;;;5091943;28;20176;-84
2020/12/30 02:24:33;;;;;;;44.10;29.53;;;;;;;;;;5091918;28;20682;-84
2020/12/30 02:27:04;;;;;;;56.57;35.73;;;;;;;;;;5091916;28;20224;-84
2020/12/30 02:29:40;;;;;;;41.43;24.53;;;;;;;;;;5093171;28;20601;-84
2020/12/30 02:32:11;;;;;;;42.13;27.17;;;;;;;;;;5092999;28;20174;-84
2020/12/30 02:34:42;;;;;;;43.70;28.53;;;;;;;;;;5093059;28;20205;-84
2020/12/30 02:37:10;;;;;;;42.60;27.47;;;;;;;;;;5093174;28;20659;-84
2020/12/30 02:39:37;;;;;;;38.93;27.07;;;;;;;;;;5091946;28;20281;-84
2020/12/30 02:42:08;;;;;;;28.13;21.70;;;;;;;;;;5093095;28;20181;-84
2020/12/30 02:44:37;;;;;;;32.33;25.10;;;;;;;;;;5092733;28;20552;-84
2020/12/30 02:47:04;;;;;;;38.90;26.73;;;;;;;;;;5092839;28;20174;-84
2020/12/30 02:49:39;;;;;;;32.33;23.90;;;;;;;;;;5093405;28;20590;-84
2020/12/30 02:52:11;;;;;;;33.93;23.50;;;;;;;;;;5093096;28;20169;-84
2020/12/30 02:54:45;;;;;;;44.63;31.73;;;;;;;;;;5092704;28;20182;-84
2020/12/30 02:57:15;;;;;;;27.43;21.47;;;;;;;;;;5091863;28;20193;-84
2020/12/30 02:59:51;;;;;;;33.70;24.80;;;;;;;;;;5091579;28;20177;-84
2020/12/30 03:02:25;;;;;;;37.63;25.47;;;;;;;;;;5092930;28;20177;-84
2020/12/30 03:04:54;;;;;;;27.60;20.70;;;;;;;;;;5092946;28;20189;-84
2020/12/30 03:07:25;;;;;;;35.03;25.40;;;;;;;;;;5091429;28;20176;-84
2020/12/30 03:09:56;;;;;;;37.43;26.43;;;;;;;;;;5091541;28;20173;-84
2020/12/30 03:12:22;;;;;;;24.97;18.87;;;;;;;;;;5091285;28;20175;-84
2020/12/30 03:14:52;;;;;;;38.97;27.83;;;;;;;;;;5092670;28;20181;-84
2020/12/30 03:17:18;;;;;;;28.20;22.10;;;;;;;;;;5091361;28;20204;-84
2020/12/30 03:19:51;;;;;;;34.83;25.53;;;;;;;;;;5091353;28;20209;-84
2020/12/30 03:22:21;;;;;;;37.63;26.93;;;;;;;;;;5092564;28;20644;-84
2020/12/30 03:24:51;;;;;;;32.57;22.93;;;;;;;;;;5094632;28;20207;-84
2020/12/30 03:27:17;;;;;;;35.30;24.27;;;;;;;;;;5096155;28;20171;-84
2020/12/30 03:29:48;;;;;;;28.20;18.43;;;;;;;;;;5095008;28;20204;-84
2020/12/30 03:32:20;;;;;;;29.10;21.53;;;;;;;;;;5096502;28;20178;-84
2020/12/30 03:34:55;;;;;;;33.10;22.50;;;;;;;;;;5094816;28;20187;-84
2020/12/30 03:37:29;;;;;;;22.20;17.83;;;;;;;;;;5096218;28;20253;-84
2020/12/30 03:40:01;;;;;;;35.93;23.27;;;;;;;;;;5096627;28;20520;-84
2020/12/30 03:42:27;;;;;;;22.43;17.17;;;;;;;;;;5094761;28;20216;-84
2020/12/30 03:45:01;;;;;;;38.33;29.30;;;;;;;;;;5095893;28;20246;-84
2020/12/30 03:47:34;;;;;;;29.50;21.37;;;;;;;;;;5096011;28;20172;-83
2020/12/30 03:50:01;;;;;;;21.20;18.07;;;;;;;;;;5096213;28;20182;-84
2020/12/30 03:52:35;;;;;;;30.20;23.90;;;;;;;;;;5094511;28;20187;-84
2020/12/30 03:55:06;;;;;;;31.13;21.87;;;;;;;;;;5094814;28;20199;-84
2020/12/30 03:57:37;;;;;;;35.83;23.40;;;;;;;;;;5095828;28;20182;-84
2020/12/30 04:00:06;;;;;;;22.53;17.23;;;;;;;;;;5095771;28;20547;-84
2020/12/30 04:02:33;;;;;;;37.97;24.37;;;;;;;;;;5095889;28;20251;-84
2020/12/30 04:05:10;;;;;;;20.10;17.07;;;;;;;;;;5095451;28;20207;-84
2020/12/30 04:07:45;;;;;;;32.73;23.73;;;;;;;;;;5095582;28;20172;-84
2020/12/30 04:10:12;;;;;;;29.97;20.93;;;;;;;;;;5095146;28;20181;-84
2020/12/30 04:12:38;;;;;;;24.60;17.90;;;;;;;;;;5095569;28;20552;-84
2020/12/30 04:15:11;;;;;;;31.03;21.80;;;;;;;;;;5095490;28;20621;-84
2020/12/30 04:17:43;;;;;;;19.27;16.80;;;;;;;;;;5095432;28;20191;-84
2020/12/30 04:20:18;;;;;;;36.73;23.53;;;;;;;;;;5095261;28;20177;-84
2020/12/30 04:22:50;;;;;;;23.10;16.80;;;;;;;;;;5095396;28;20200;-84
2020/12/30 04:25:26;;;;;;;31.80;22.70;;;;;;;;;;5095081;28;20597;-84
2020/12/30 04:27:58;;;;;;;29.00;19.90;;;;;;;;;;5093929;28;20170;-83
2020/12/30 04:30:31;;;;;;;34.17;26.03;;;;;;;;;;5093813;28;20261;-84
2020/12/30 04:33:01;;;;;;;27.90;22.53;;;;;;;;;;5095392;28;20173;-84
2020/12/30 04:35:31;;;;;;;29.17;22.70;;;;;;;;;;5094553;28;20196;-84
2020/12/30 04:38:04;;;;;;;22.93;19.17;;;;;;;;;;5093822;28;20186;-84
2020/12/30 04:40:37;;;;;;;28.33;18.37;;;;;;;;;;5094980;28;20264;-84
2020/12/30 04:43:08;;;;;;;30.80;21.33;;;;;;;;;;5093541;28;20193;-84
2020/12/30 04:45:40;;;;;;;38.77;27.20;;;;;;;;;;5093286;28;20219;-84
2020/12/30 04:48:13;;;;;;;36.00;23.13;;;;;;;;;;5095207;28;20180;-84
2020/12/30 04:50:45;;;;;;;24.43;18.77;;;;;;;;;;5095341;28;20169;-84
2020/12/30 04:53:21;;;;;;;35.13;23.63;;;;;;;;;;5093270;28;20262;-84
2020/12/30 04:55:55;;;;;;;32.77;23.03;;;;;;;;;;5094535;28;20223;-84
2020/12/30 04:58:29;;;;;;;46.07;28.47;;;;;;;;;;5094787;28;20256;-84
2020/12/30 05:01:00;;;;;;;26.27;19.73;;;;;;;;;;5094727;28;20189;-84
2020/12/30 05:03:34;;;;;;;25.90;20.80;;;;;;;;;;5093210;28;20203;-84
2020/12/30 05:06:08;;;;;;;27.97;19.90;;;;;;;;;;5094371;28;20208;-84
2020/12/30 05:08:45;;;;;;;30.30;22.27;;;;;;;;;;5094646;28;20178;-84
2020/12/30 05:11:12;;;;;;;34.30;22.00;;;;;;;;;;5093142;28;20177;-84
2020/12/30 05:13:44;;;;;;;34.77;25.17;;;;;;;;;;5093081;28;20631;-84
2020/12/30 05:16:21;;;;;;;31.73;23.13;;;;;;;;;;5094550;28;20249;-84
2020/12/30 05:18:55;;;;;;;30.40;23.30;;;;;;;;;;5094479;28;20255;-84
2020/12/30 05:21:26;;;;;;;37.10;25.20;;;;;;;;;;5094230;28;20186;-84
2020/12/30 05:23:58;;;;;;;42.23;27.43;;;;;;;;;;5092813;28;20184;-84
2020/12/30 05:26:30;;;;;;;34.43;26.37;;;;;;;;;;5093803;28;20217;-84
2020/12/30 05:29:01;;;;;;;24.27;19.37;;;;;;;;;;5094222;28;20184;-84
2020/12/30 05:31:31;;;;;;;29.07;20.73;;;;;;;;;;5092553;28;20180;-84
2020/12/30 05:34:04;;;;;;;46.87;30.63;;;;;;;;;;5093880;28;20181;-84
2020/12/30 05:36:38;;;;;;;34.03;25.43;;;;;;;;;;5094121;28;20285;-84
2020/12/30 05:39:11;;;;;;;28.73;23.20;;;;;;;;;;5093828;28;20184;-84
2020/12/30 05:41:37;;;;;;;30.10;23.30;;;;;;;;;;5093751;28;20180;-84
2020/12/30 05:44:18;;;;;;;40.13;26.53;;;;;;;;;;5093836;28;20180;-84
2020/12/30 05:46:47;;;;;;;33.30;20.67;;;;;;;;;;5092893;28;20202;-84
2020/12/30 05:49:37;;;;;;;43.20;30.00;;;;;;;;;;5092319;28;20176;-84
2020/12/30 05:52:22;;;;;;;29.07;22.90;;;;;;;;;;5093715;28;20177;-84
2020/12/30 05:55:01;;;;;;;34.30;24.60;;;;;;;;;;5094107;28;20612;-84
2020/12/30 05:57:33;;;;;;;26.67;21.40;;;;;;;;;;5094033;28;20587;-84
2020/12/30 06:00:11;;;;;;;39.30;28.57;;;;;;;;;;5093580;28;20174;-84
2020/12/30 06:02:45;;;;;;;31.73;22.67;;;;;;;;;;5093480;28;20195;-84
2020/12/30 06:05:15;;;;;;;35.20;21.13;;;;;;;;;;5093551;28;20599;-84
2020/12/30 06:07:56;;;;;;;36.63;25.47;;;;;;;;;;5091441;28;20201;-84
2020/12/30 06:10:26;;;;;;;34.43;25.13;;;;;;;;;;5093410;28;20173;-84
2020/12/30 06:13:05;;;;;;;31.83;22.60;;;;;;;;;;5093526;28;20531;-84
2020/12/30 06:15:37;;;;;;;27.07;19.83;;;;;;;;;;5093429;28;20193;-84
2020/12/30 06:18:08;;;;;;;30.17;20.87;;;;;;;;;;5093186;28;20649;-84
2020/12/30 06:20:47;;;;;;;29.73;18.57;;;;;;;;;;5091990;28;20226;-84
2020/12/30 06:23:17;;;;;;;33.00;25.40;;;;;;;;;;5092158;28;20593;-84
2020/12/30 06:25:51;;;;;;;26.93;18.73;;;;;;;;;;5092922;28;20205;-84
2020/12/30 06:28:19;;;;;;;31.37;24.20;;;;;;;;;;5093295;28;20248;-84
2020/12/30 06:30:47;;;;;;;29.40;21.57;;;;;;;;;;5091910;28;20177;-84
2020/12/30 06:33:17;;;;;;;22.90;19.40;;;;;;;;;;5093495;28;20209;-84
2020/12/30 06:35:51;;;;;;;32.33;23.80;;;;;;;;;;5092944;28;20681;-84
2020/12/30 06:38:26;;;;;;;22.97;17.40;;;;;;;;;;5091697;28;20272;-84
2020/12/30 06:41:01;;;;;;;25.43;19.03;;;;;;;;;;5093055;28;20705;-84
2020/12/30 06:43:41;;;;;;;33.70;23.97;;;;;;;;;;5092889;28;20202;-84
2020/12/30 06:46:12;;;;;;;24.70;19.57;;;;;;;;;;5093102;28;20212;-84
2020/12/30 06:48:59;;;;;;;35.80;25.63;;;;;;;;;;5092891;28;20178;-84
2020/12/30 06:51:34;;;;;;;28.20;21.40;;;;;;;;;;5093378;28;20170;-84
2020/12/30 06:54:07;;;;;;;20.30;17.00;;;;;;;;;;5092976;28;20262;-84
2020/12/30 06:56:42;;;;;;;31.50;20.87;;;;;;;;;;5092842;28;20274;-84
2020/12/30 06:59:14;;;;;;;26.30;19.83;;;;;;;;;;5094321;28;20176;-84
2020/12/30 07:02:00;;;;;;;29.33;19.87;;;;;;;;;;5097112;28;20242;-84
2020/12/30 07:04:35;;;;;;;26.33;21.30;;;;;;;;;;5095433;28;20189;-84
2020/12/30 07:07:05;;;;;;;23.37;19.37;;;;;;;;;;5095395;28;20176;-84
2020/12/30 07:09:35;;;;;;;17.20;15.37;;;;;;;;;;5095488;28;20176;-84
2020/12/30 07:12:02;;;;;;;24.37;21.17;;;;;;;;;;5096790;28;20182;-84
2020/12/30 07:14:40;;;;;;;29.43;21.80;;;;;;;;;;5095369;28;20177;-84
2020/12/30 07:17:14;;;;;;;25.20;19.57;;;;;;;;;;5096580;28;20169;-84
2020/12/30 07:19:50;;;;;;;20.43;15.93;;;;;;;;;;5096511;28;20178;-84
2020/12/30 07:22:29;;;;;;;30.57;24.10;;;;;;;;;;5096637;28;20330;-84
2020/12/30 07:25:01;;;;;;;28.60;19.97;;;;;;;;;;5094890;28;20217;-84
2020/12/30 07:27:33;;;;;;;25.33;19.20;;;;;;;;;;5096303;28;20179;-84
2020/12/30 07:30:08;;;;;;;21.27;16.83;;;;;;;;;;5096330;28;20169;-84
2020/12/30 07:32:39;;;;;;;29.00;20.57;;;;;;;;;;5096491;28;20177;-84
2020/12/30 07:35:11;;;;;;;35.30;24.50;;;;;;;;;;5096399;28;20205;-84
2020/12/30 07:37:41;;;;;;;26.47;19.27;;;;;;;;;;5096433;28;20186;-84
2020/12/30 07:40:14;;;;;;;24.37;18.60;;;;;;;;;;5094785;28;20187;-84
2020/12/30 07:42:44;;;;;;;31.70;24.13;;;;;;;;;;5094890;28;20177;-84
2020/12/30 07:45:15;;;;;;;28.63;20.70;;;;;;;;;;5094529;28;20206;-84
2020/12/30 07:47:47;;;;;;;28.87;20.90;;;;;;;;;;5095974;28;20652;-84
2020/12/30 07:50:15;;;;;;;29.40;21.03;;;;;;;;;;5096218;28;20250;-84
2020/12/30 07:52:46;;;;;;;23.10;17.50;;;;;;;;;;5096016;28;20182;-84
2020/12/30 07:55:31;;;;;;;25.87;20.57;;;;;;;;;;5095855;28;20215;-84
2020/12/30 07:58:01;;;;;;;20.10;17.53;;;;;;;;;;5137484;22;20601;-93
2020/12/30 08:00:32;;;;;;;34.87;26.87;;;;;;;;;;5117667;28;20176;-92
2020/12/30 08:03:04;;;;;;;29.80;21.50;;;;;;;;;;5117264;28;20168;-92
2020/12/30 08:05:39;;;;;;;27.70;19.73;;;;;;;;;;5117186;28;20205;-92
2020/12/30 08:08:11;;;;;;;20.30;16.10;;;;;;;;;;5119543;28;20202;-92
2020/12/30 08:10:44;;;;;;;33.97;22.03;;;;;;;;;;5117232;28;20169;-92
2020/12/30 08:13:21;;;;;;;27.80;17.80;;;;;;;;;;5118305;28;20173;-92
2020/12/30 08:15:56;;;;;;;21.57;16.83;;;;;;;;;;5119183;28;20213;-92
2020/12/30 08:18:27;;;;;;;17.00;14.57;;;;;;;;;;5117704;28;20689;-93
2020/12/30 08:20:53;;;;;;;19.33;16.27;;;;;;;;;;5118051;28;20253;-91
2020/12/30 08:23:31;;;;;;;25.87;18.10;;;;;;;;;;5117917;28;20178;-92
2020/12/30 08:26:02;;;;;;;32.60;23.00;;;;;;;;;;5117818;28;20196;-92
2020/12/30 08:28:35;;;;;;;21.37;17.30;;;;;;;;;;5117365;28;20172;-92
2020/12/30 08:31:07;;;;;;;25.73;17.47;;;;;;;;;;5117196;28;20206;-92
2020/12/30 08:33:40;;;;;;;27.00;20.27;;;;;;;;;;5116731;28;20172;-92
2020/12/30 08:36:21;;;;;;;26.07;20.23;;;;;;;;;;5117085;28;20215;-92
2020/12/30 08:38:53;;;;;;;22.43;17.87;;;;;;;;;;5117055;28;20265;-92
2020/12/30 08:41:29;;;;;;;33.43;21.47;;;;;;;;;;5117803;28;20181;-92
2020/12/30 08:44:06;;;;;;;25.13;18.93;;;;;;;;;;5117465;28;20173;-92
2020/12/30 08:46:40;;;;;;;27.47;21.70;;;;;;;;;;5116831;28;20205;-93
2020/12/30 08:49:14;;;;;;;22.67;16.97;;;;;;;;;;5117597;28;20167;-93
2020/12/30 08:51:45;;;;;;;33.27;23.63;;;;;;;;;;5117458;28;20819;-93
2020/12/30 08:54:15;;;;;;;29.30;22.47;;;;;;;;;;5117558;28;20272;-92
2020/12/30 08:56:45;;;;;;;28.50;18.70;;;;;;;;;;5116585;28;20211;-92
2020/12/30 08:59:27;;;;;;;34.17;23.70;;;;;;;;;;5117365;28;20584;-92
2020/12/30 09:02:11;;;;;;;26.47;20.37;;;;;;;;;;5117452;28;20202;-92
2020/12/30 09:05:02;;;;;;;27.17;21.33;;;;;;;;;;5118806;28;20170;-92
2020/12/30 09:07:34;;;;;;;31.90;23.07;;;;;;;;;;5118883;28;20733;-93
2020/12/30 09:10:11;;;;;;;33.27;22.73;;;;;;;;;;5117386;28;20262;-93
2020/12/30 09:12:41;;;;;;;21.23;16.07;;;;;;;;;;5115092;28;20170;-92
2020/12/30 09:15:08;;;;;;;41.73;28.83;;;;;;;;;;5115480;28;20201;-92
2020/12/30 09:17:40;;;;;;;33.80;23.30;;;;;;;;;;5116477;28;20220;-92
2020/12/30 09:20:15;;;;;;;25.83;20.27;;;;;;;;;;5115944;28;20200;-93
2020/12/30 09:22:47;;;;;;;28.00;20.83;;;;;;;;;;5115241;28;20178;-92
2020/12/30 09:25:38;;;;;;;30.57;21.63;;;;;;;;;;5116013;28;20187;-92
2020/12/30 09:28:15;;;;;;;24.13;17.30;;;;;;;;;;5115692;28;20293;-92
2020/12/30 09:30:45;;;;;;;28.33;21.53;;;;;;;;;;5115996;28;20237;-93
2020/12/30 09:33:14;;;;;;;32.63;23.53;;;;;;;;;;5116163;28;20519;-92
2020/12/30 09:35:51;;;;;;;26.27;19.63;;;;;;;;;;5116275;28;20175;-92
2020/12/30 09:38:21;;;;;;;35.67;25.30;;;;;;;;;;5115701;28;20175;-92
2020/12/30 09:40:53;;;;;;;34.10;17.93;;;;;;;;;;5115640;28;20665;-93
2020/12/30 09:43:26;;;;;;;29.33;19.97;;;;;;;;;;5114976;28;20173;-92
2020/12/30 09:46:01;;;;;;;34.87;23.50;;;;;;;;;;5114686;28;20195;-92
2020/12/30 09:48:30;;;;;;;26.67;20.30;;;;;;;;;;5114929;28;20170;-92
2020/12/30 09:51:01;;;;;;;23.63;18.07;;;;;;;;;;5115312;28;20176;-93
2020/12/30 09:53:35;;;;;;;31.30;23.23;;;;;;;;;;5114862;28;20176;-90
2020/12/30 09:56:03;;;;;;;27.53;19.27;;;;;;;;;;5113169;28;20207;-89
2020/12/30 09:58:35;;;;;;;34.63;25.43;;;;;;;;;;5114256;28;20176;-93
2020/12/30 10:01:08;;;;;;;17.10;15.20;;;;;;;;;;5113968;28;20233;-93
2020/12/30 10:03:35;;;;;;;26.07;18.77;;;;;;;;;;5114038;28;20172;-93
2020/12/30 10:06:10;;;;;;;32.87;18.63;;;;;;;;;;5113720;28;20226;-92
2020/12/30 10:08:41;;;;;;;33.90;23.53;;;;;;;;;;5115043;28;20176;-93
2020/12/30 10:11:11;;;;;;;39.73;28.07;;;;;;;;;;5118059;28;20217;-93
2020/12/30 10:13:45;;;;;;;27.83;20.03;;;;;;;;;;5118346;28;20167;-92
2020/12/30 10:16:15;;;;;;;31.00;19.73;;;;;;;;;;5117085;28;20197;-93
2020/12/30 10:18:43;;;;;;;33.47;21.47;;;;;;;;;;5116606;28;20256;-92
2020/12/30 10:21:20;;;;;;;26.90;21.10;;;;;;;;;;5115009;28;20180;-89
2020/12/30 10:23:58;;;;;;;33.10;25.10;;;;;;;;;;5114296;28;20203;-92
2020/12/30 10:26:30;;;;;;;31.57;21.67;;;;;;;;;;5115172;28;20204;-93
2020/12/30 10:29:05;;;;;;;31.50;22.17;;;;;;;;;;5115600;28;20181;-93
2020/12/30 10:31:37;;;;;;;21.47;15.63;;;;;;;;;;5115983;28;20182;-93
2020/12/30 10:34:09;;;;;;;30.63;20.17;;;;;;;;;;5117481;28;20166;-92
2020/12/30 10:36:42;;;;;;;33.57;21.53;;;;;;;;;;5117940;28;20197;-93
2020/12/30 10:39:16;;;;;;;38.87;25.67;;;;;;;;;;5118171;28;20177;-93
2020/12/30 10:41:51;;;;;;;24.63;18.67;;;;;;;;;;5119600;27;20160;-93
2020/12/30 10:44:25;;;;;;;25.83;19.40;;;;;;;;;;5118117;28;20201;-93
2020/12/30 10:46:59;;;;;;;29.87;20.77;;;;;;;;;;5117767;28;20222;-92
2020/12/30 10:49:31;;;;;;;19.43;17.27;;;;;;;;;;5119667;28;20680;-92
2020/12/30 10:52:03;;;;;;;30.37;22.83;;;;;;;;;;5122019;28;20214;-93
2020/12/30 10:54:42;;;;;;;36.10;19.47;;;;;;;;;;5119866;28;20173;-89
2020/12/30 10:57:11;;;;;;;28.27;18.67;;;;;;;;;;5116764;28;20259;-90
2020/12/30 10:59:45;;;;;;;27.37;20.20;;;;;;;;;;5116688;28;20719;-90
2020/12/30 11:02:17;;;;;;;23.10;18.13;;;;;;;;;;5116642;28;20699;-90
2020/12/30 11:04:46;;;;;;;28.30;22.20;;;;;;;;;;5117599;28;20224;-90
2020/12/30 11:07:15;;;;;;;29.00;20.40;;;;;;;;;;5116293;28;20222;-88
2020/12/30 11:09:44;;;;;;;37.97;25.80;;;;;;;;;;5116835;28;20168;-92
2020/12/30 11:12:13;;;;;;;25.30;18.70;;;;;;;;;;5116465;28;20218;-92
2020/12/30 11:14:45;;;;;;;29.37;19.43;;;;;;;;;;5116628;28;20181;-93
2020/12/30 11:17:21;;;;;;;30.23;19.67;;;;;;;;;;5116213;28;20680;-92
2020/12/30 11:19:55;;;;;;;24.10;18.63;;;;;;;;;;5116009;28;20174;-92
2020/12/30 11:22:29;;;;;;;38.73;26.73;;;;;;;;;;5115779;28;20614;-92
2020/12/30 11:25:01;;;;;;;34.97;23.07;;;;;;;;;;5115664;28;20282;-92
2020/12/30 11:27:34;;;;;;;26.13;20.20;;;;;;;;;;5115741;28;20212;-92
2020/12/30 11:30:09;;;;;;;39.87;28.13;;;;;;;;;;5116569;28;20208;-92
2020/12/30 11:32:43;;;;;;;32.67;22.47;;;;;;;;;;5116638;28;20172;-92
2020/12/30 11:35:10;;;;;;;30.83;21.13;;;;;;;;;;5115912;28;20175;-92
2020/12/30 11:37:46;;;;;;;34.17;23.10;;;;;;;;;;5115917;28;20670;-92
2020/12/30 11:40:16;;;;;;;31.17;20.97;;;;;;;;;;5115736;28;20176;-92
2020/12/30 11:42:46;;;;;;;33.83;22.10;;;;;;;;;;5115460;28;20243;-92
2020/12/30 11:45:14;;;;;;;40.40;25.77;;;;;;;;;;5114240;28;20190;-91
2020/12/30 11:47:48;;;;;;;34.23;24.77;;;;;;;;;;5115364;28;20199;-91
2020/12/30 11:50:21;;;;;;;26.80;19.47;;;;;;;;;;5116475;28;20246;-91
2020/12/30 11:52:50;;;;;;;33.50;21.00;;;;;;;;;;5116821;28;20204;-92
2020/12/30 11:55:24;;;;;;;27.87;21.43;;;;;;;;;;5115708;28;20207;-92
2020/12/30 11:57:51;;;;;;;33.00;22.67;;;;;;;;;;5115592;28;20309;-91
2020/12/30 12:00:21;;;;;;;39.20;25.60;;;;;;;;;;5115194;28;20186;-92
2020/12/30 12:02:51;;;;;;;28.00;19.43;;;;;;;;;;5115122;28;20182;-91
2020/12/30 12:05:18;;;;;;;42.37;28.03;;;;;;;;;;5115057;28;20230;-91
2020/12/30 12:07:50;;;;;;;34.37;22.40;;;;;;;;;;5115295;28;20196;-92
2020/12/30 12:10:18;;;;;;;26.37;18.90;;;;;;;;;;5115076;28;20699;-92
2020/12/30 12:12:50;;;;;;;27.23;20.07;;;;;;;;;;5115023;28;20167;-91
2020/12/30 12:15:21;;;;;;;21.63;17.37;;;;;;;;;;5114921;28;20694;-91
2020/12/30 12:17:52;;;;;;;37.30;25.57;;;;;;;;;;5115865;28;20194;-91
2020/12/30 12:20:21;;;;;;;37.90;25.23;;;;;;;;;;5114810;28;20249;-91
2020/12/30 12:22:47;;;;;;;23.40;19.77;;;;;;;;;;5115222;28;20180;-92
2020/12/30 12:25:19;;;;;;;35.60;25.00;;;;;;;;;;5114949;28;20197;-92
2020/12/30 12:27:47;;;;;;;21.70;18.07;;;;;;;;;;5115328;28;20225;-91
2020/12/30 12:30:16;;;;;;;32.87;23.00;;;;;;;;;;5114484;28;20195;-91
2020/12/30 12:32:47;;;;;;;29.90;20.10;;;;;;;;;;5114561;28;20644;-92
2020/12/30 12:35:17;;;;;;;23.17;18.73;;;;;;;;;;5114891;28;20669;-92
2020/12/30 12:38:06;;;;;;;27.87;19.67;;;;;;;;;;5114389;28;20279;-89
2020/12/30 12:40:32;;;;;;;31.63;21.77;;;;;;;;;;5116283;28;20156;-92
2020/12/30 12:43:02;;;;;;;28.57;18.50;;;;;;;;;;5114389;28;20659;-91
2020/12/30 12:45:29;;;;;;;30.40;20.20;;;;;;;;;;5114648;28;20285;-92
2020/12/30 12:48:00;;;;;;;29.87;21.10;;;;;;;;;;5114554;28;20280;-91
2020/12/30 12:50:26;;;;;;;32.83;20.60;;;;;;;;;;5114063;28;20167;-91
2020/12/30 12:52:52;;;;;;;39.20;26.57;;;;;;;;;;5114045;28;20171;-91
2020/12/30 12:55:19;;;;;;;36.23;24.87;;;;;;;;;;5115598;28;20176;-90
2020/12/30 12:57:45;;;;;;;35.43;23.67;;;;;;;;;;5113929;28;20235;-91
2020/12/30 13:00:15;;;;;;;31.83;22.03;;;;;;;;;;5114353;28;20179;-91
2020/12/30 13:02:44;;;;;;;24.57;18.87;;;;;;;;;;5114053;28;20260;-91
2020/12/30 13:05:11;;;;;;;25.23;18.53;;;;;;;;;;5114111;28;20248;-91
2020/12/30 13:07:41;;;;;;;34.83;23.13;;;;;;;;;;5114442;28;20232;-91
2020/12/30 13:10:07;;;;;;;26.43;19.97;;;;;;;;;;5114004;28;20174;-90
2020/12/30 13:12:33;;;;;;;33.03;22.47;;;;;;;;;;5114090;28;20548;-91
2020/12/30 13:15:03;;;;;;;21.53;15.63;;;;;;;;;;5114087;28;20242;-90
2020/12/30 13:17:30;;;;;;;22.47;18.53;;;;;;;;;;5115461;28;20227;-91
2020/12/30 13:19:57;;;;;;;33.47;21.80;;;;;;;;;;5115133;28;20173;-91
2020/12/30 13:22:26;;;;;;;27.50;19.93;;;;;;;;;;5113600;28;20599;-90
2020/12/30 13:24:53;;;;;;;33.50;21.10;;;;;;;;;;5113383;28;20264;-89
2020/12/30 13:27:19;;;;;;;32.20;21.73;;;;;;;;;;5114258;28;20231;-89
2020/12/30 13:29:48;;;;;;;26.20;19.67;;;;;;;;;;5113506;28;20180;-90
2020/12/30 13:32:17;;;;;;;28.33;21.83;;;;;;;;;;5113548;28;20176;-90
2020/12/30 13:34:46;;;;;;;22.90;18.90;;;;;;;;;;5113585;28;20283;-90
2020/12/30 13:37:12;;;;;;;28.33;20.57;;;;;;;;;;5113513;28;20203;-88
2020/12/30 13:39:39;;;;;;;33.70;21.67;;;;;;;;;;5113475;28;20652;-88
2020/12/30 13:42:13;;;;;;;39.67;28.47;;;;;;;;;;5113151;28;20207;-87
2020/12/30 13:44:45;;;;;;;26.57;20.50;;;;;;;;;;5113166;28;20279;-88
2020/12/30 13:47:17;;;;;;;37.30;25.53;;;;;;;;;;5113144;28;20209;-87
2020/12/30 13:49:51;;;;;;;31.83;21.73;;;;;;;;;;5112727;28;20174;-87
2020/12/30 13:52:24;;;;;;;37.67;28.20;;;;;;;;;;5114200;28;20236;-87
2020/12/30 13:54:51;;;;;;;34.70;24.80;;;;;;;;;;5112992;28;20181;-88
2020/12/30 13:57:24;;;;;;;33.97;23.07;;;;;;;;;;5199385;22;20293;-88
2020/12/30 13:59:58;;;;;;;40.77;27.37;;;;;;;;;;5113091;28;20184;-89
2020/12/30 14:02:30;;;;;;;37.67;25.57;;;;;;;;;;5112917;28;20169;-89
2020/12/30 14:04:56;;;;;;;28.77;21.77;;;;;;;;;;5112789;28;20174;-89
2020/12/30 14:07:28;;;;;;;30.37;19.50;;;;;;;;;;5113706;28;20234;-89
2020/12/30 14:10:00;;;;;;;37.90;25.30;;;;;;;;;;5113318;28;20569;-89
2020/12/30 14:12:36;;;;;;;28.73;20.63;;;;;;;;;;5112727;28;20177;-89
2020/12/30 14:15:08;;;;;;;39.27;26.00;;;;;;;;;;5112493;28;20184;-90
2020/12/30 14:17:40;;;;;;;30.40;21.07;;;;;;;;;;5113671;28;20192;-90
2020/12/30 14:20:13;;;;;;;28.70;21.20;;;;;;;;;;5112434;28;20173;-90
2020/12/30 14:22:45;;;;;;;22.90;18.43;;;;;;;;;;5113793;28;20227;-90
2020/12/30 14:25:15;;;;;;;32.83;22.23;;;;;;;;;;5112611;28;20201;-89
2020/12/30 14:27:51;;;;;;;33.30;23.53;;;;;;;;;;5113743;28;20186;-90
2020/12/30 14:30:25;;;;;;;23.07;15.90;;;;;;;;;;5113886;28;20185;-90
2020/12/30 14:32:59;;;;;;;36.13;25.97;;;;;;;;;;5112464;28;20181;-90
2020/12/30 14:35:34;;;;;;;31.57;23.00;;;;;;;;;;5112835;28;20174;-90
2020/12/30 14:38:01;;;;;;;36.27;23.07;;;;;;;;;;5112276;28;20193;-90
2020/12/30 14:40:28;;;;;;;17.93;15.73;;;;;;;;;;5112435;28;20178;-90
2020/12/30 14:42:55;;;;;;;28.60;21.83;;;;;;;;;;5112345;28;20264;-90